createdAt,value
2022-10-24T00:00:23.316Z,2.00
2022-10-24T00:02:57.892Z,2.03
2022-10-24T00:05:26.384Z,1.87
2022-10-24T00:08:01.103Z,1.80
2022-10-24T00:10:36.623Z,2.10
2022-10-24T00:13:12.153Z,2.10
2022-10-24T00:15:44.930Z,2.10
2022-10-24T00:18:19.860Z,1.93
2022-10-24T00:20:48.370Z,1.77
2022-10-24T00:23:22.877Z,1.93
2022-10-24T00:25:51.927Z,2.07
2022-10-24T00:28:26.917Z,1.97
2022-10-24T00:31:07.070Z,2.07
2022-10-24T00:33:36.366Z,2.00
2022-10-24T00:36:12.062Z,2.10
2022-10-24T00:38:40.820Z,1.70
2022-10-24T00:41:15.946Z,1.83
2022-10-24T00:43:44.536Z,1.70
2022-10-24T00:46:23.073Z,1.40
2022-10-24T00:48:54.428Z,1.70
2022-10-24T00:51:32.912Z,1.60
2022-10-24T00:54:05.309Z,1.70
2022-10-24T00:56:44.108Z,1.50
2022-10-24T00:59:14.290Z,1.90
2022-10-24T01:01:50.936Z,1.90
2022-10-24T01:04:19.431Z,1.70
2022-10-24T01:07:00.962Z,1.77
2022-10-24T01:09:47.404Z,1.57
2022-10-24T01:12:34.920Z,1.60
2022-10-24T01:15:14.323Z,1.10
2022-10-24T01:17:59.012Z,1.37
2022-10-24T01:20:44.458Z,1.50
2022-10-24T01:23:50.988Z,1.53
2022-10-24T01:26:48.474Z,1.77
2022-10-24T01:29:30.947Z,1.27
2022-10-24T01:32:13.580Z,1.37
2022-10-24T01:34:52.990Z,1.70
2022-10-24T01:37:25.466Z,1.37
2022-10-24T01:40:05.990Z,1.60
2022-10-24T01:42:44.129Z,1.40
2022-10-24T01:45:16.142Z,1.50
2022-10-24T01:47:58.951Z,1.57
2022-10-24T01:50:30.242Z,1.57
2022-10-24T01:53:07.149Z,1.50
2022-10-24T01:55:35.884Z,1.60
2022-10-24T01:58:11.185Z,1.47
2022-10-24T02:00:39.704Z,1.47
2022-10-24T02:03:24.982Z,1.50
2022-10-24T02:06:04.042Z,1.77
2022-10-24T02:08:45.109Z,1.57
2022-10-24T02:11:20.973Z,1.50
2022-10-24T02:13:53.650Z,1.70
2022-10-24T02:16:29.144Z,1.63
2022-10-24T02:18:59.957Z,1.80
2022-10-24T02:21:39.153Z,1.77
2022-10-24T02:24:16.489Z,1.63
2022-10-24T02:26:57.061Z,1.53
2022-10-24T02:29:29.081Z,1.60
2022-10-24T02:32:07.015Z,1.70
2022-10-24T02:34:39.940Z,1.80
2022-10-24T02:37:16.959Z,1.70
2022-10-24T02:39:47.735Z,1.97
2022-10-24T02:42:24.053Z,1.60
2022-10-24T02:44:53.032Z,1.50
2022-10-24T02:47:32.013Z,1.43
2022-10-24T02:50:01.956Z,1.70
2022-10-24T02:52:42.196Z,1.90
2022-10-24T02:55:11.883Z,1.70
2022-10-24T02:57:47.172Z,1.80
2022-10-24T03:00:18.774Z,1.80
2022-10-24T03:02:54.213Z,1.90
2022-10-24T03:05:24.128Z,1.73
2022-10-24T03:08:06.014Z,1.90
2022-10-24T03:10:34.427Z,1.60
2022-10-24T03:13:10.207Z,1.70
2022-10-24T03:15:38.618Z,1.57
2022-10-24T03:18:14.076Z,1.53
2022-10-24T03:20:44.031Z,1.40
2022-10-24T03:23:19.014Z,1.50
2022-10-24T03:25:47.580Z,1.77
2022-10-24T03:28:22.997Z,1.83
2022-10-24T03:30:52.623Z,1.90
2022-10-24T03:33:28.068Z,1.40
2022-10-24T03:35:58.094Z,1.70
2022-10-24T03:38:33.053Z,1.60
2022-10-24T03:41:01.901Z,1.50
2022-10-24T03:43:37.129Z,1.67
2022-10-24T03:46:05.741Z,2.10
2022-10-24T03:48:41.217Z,1.87
2022-10-24T03:51:11.197Z,1.77
2022-10-24T03:53:46.246Z,1.77
2022-10-24T03:56:14.683Z,1.77
2022-10-24T03:58:49.097Z,1.87
2022-10-24T04:01:19.172Z,1.43
2022-10-24T04:03:55.124Z,1.53
2022-10-24T04:06:24.895Z,1.70
2022-10-24T04:09:07.248Z,1.90
2022-10-24T04:11:35.893Z,1.90
2022-10-24T04:14:11.088Z,1.43
2022-10-24T04:16:39.546Z,1.70
2022-10-24T04:19:14.262Z,1.60
2022-10-24T04:21:44.416Z,1.63
2022-10-24T04:24:19.174Z,1.67
2022-10-24T04:26:47.628Z,1.70
2022-10-24T04:29:23.283Z,1.80
2022-10-24T04:31:51.816Z,1.97
2022-10-24T04:34:27.175Z,1.57
2022-10-24T04:36:57.095Z,1.63
2022-10-24T04:39:32.209Z,1.70
2022-10-24T04:42:00.886Z,1.50
2022-10-24T04:44:36.333Z,1.87
2022-10-24T04:47:04.752Z,1.80
2022-10-24T04:49:40.166Z,1.50
2022-10-24T04:52:10.165Z,2.00
2022-10-24T04:54:45.134Z,1.50
2022-10-24T04:57:13.444Z,1.70
2022-10-24T04:59:48.142Z,1.80
2022-10-24T05:02:16.789Z,1.90
2022-10-24T05:04:52.186Z,1.77
2022-10-24T05:07:28.653Z,1.73
2022-10-24T05:10:10.578Z,1.90
2022-10-24T05:12:39.253Z,2.00
2022-10-24T05:15:16.315Z,2.03
2022-10-24T05:17:44.856Z,1.70
2022-10-24T05:20:20.303Z,1.70
2022-10-24T05:22:50.352Z,1.70
2022-10-24T05:25:25.161Z,1.80
2022-10-24T05:27:53.533Z,2.23
2022-10-24T05:30:28.352Z,2.17
2022-10-24T05:32:56.975Z,2.10
2022-10-24T05:35:32.330Z,2.60
2022-10-24T05:38:02.423Z,2.10
2022-10-24T05:40:38.341Z,2.10
2022-10-24T05:43:06.892Z,1.90
2022-10-24T05:45:42.225Z,1.97
2022-10-24T05:48:10.725Z,2.03
2022-10-24T05:50:46.689Z,2.13
2022-10-24T05:53:16.867Z,2.37
2022-10-24T05:55:52.374Z,1.63
2022-10-24T05:58:22.462Z,2.13
2022-10-24T06:00:58.572Z,1.97
2022-10-24T06:03:27.464Z,2.00
2022-10-24T06:06:02.354Z,2.00
2022-10-24T06:08:38.853Z,2.03
2022-10-24T06:14:00.512Z,2.40
2022-10-24T06:16:30.833Z,2.20
2022-10-24T06:19:05.386Z,2.10
2022-10-24T06:21:36.711Z,1.80
2022-10-24T06:24:13.383Z,2.03
2022-10-24T06:26:41.966Z,2.00
2022-10-24T06:29:17.227Z,2.20
2022-10-24T06:31:45.801Z,2.43
2022-10-24T06:36:49.742Z,2.13
2022-10-24T06:39:27.242Z,2.20
2022-10-24T06:41:55.830Z,2.10
2022-10-24T06:44:30.254Z,1.93
2022-10-24T06:46:58.792Z,2.00
2022-10-24T06:49:34.411Z,2.37
2022-10-24T06:52:03.255Z,1.97
2022-10-24T06:54:40.288Z,2.30
2022-10-24T06:57:09.111Z,1.87
2022-10-24T06:59:44.970Z,2.47
2022-10-24T07:02:14.668Z,2.70
2022-10-24T07:04:50.383Z,2.37
2022-10-24T07:07:20.934Z,2.20
2022-10-24T07:10:09.360Z,2.50
2022-10-24T07:12:37.792Z,2.57
2022-10-24T07:15:13.365Z,2.20
2022-10-24T07:17:42.590Z,2.30
2022-10-24T07:20:19.268Z,3.00
2022-10-24T07:22:48.107Z,2.07
2022-10-24T07:25:25.266Z,2.23
2022-10-24T07:27:54.894Z,2.40
2022-10-24T07:30:30.487Z,2.60
2022-10-24T07:32:59.122Z,2.33
2022-10-24T07:35:34.364Z,2.60
2022-10-24T07:38:03.715Z,2.23
2022-10-24T07:40:40.372Z,2.80
2022-10-24T07:43:08.520Z,2.23
2022-10-24T07:45:46.484Z,2.40
2022-10-24T07:48:17.862Z,2.23
2022-10-24T07:50:54.292Z,2.50
2022-10-24T07:53:22.753Z,2.57
2022-10-24T07:55:59.290Z,2.20
2022-10-24T07:58:28.177Z,2.50
2022-10-24T08:01:03.522Z,2.60
2022-10-24T08:03:32.313Z,2.50
2022-10-24T08:06:07.726Z,2.53
2022-10-24T08:08:57.099Z,2.27
2022-10-24T08:11:36.503Z,2.70
2022-10-24T08:14:05.281Z,2.40
2022-10-24T08:16:40.280Z,2.53
2022-10-24T08:19:08.747Z,2.60
2022-10-24T08:21:43.482Z,2.40
2022-10-24T08:24:12.029Z,2.60
2022-10-24T08:26:48.523Z,2.30
2022-10-24T08:29:22.322Z,3.50
2022-10-24T08:31:58.513Z,2.50
2022-10-24T08:34:26.980Z,3.20
2022-10-24T08:37:02.329Z,2.67
2022-10-24T08:39:30.838Z,3.07
2022-10-24T08:42:10.564Z,2.33
2022-10-24T08:44:41.184Z,2.33
2022-10-24T08:47:26.601Z,2.77
2022-10-24T08:49:59.977Z,2.70
2022-10-24T08:52:39.391Z,2.50
2022-10-24T08:58:13.537Z,2.77
2022-10-24T09:00:44.024Z,2.60
2022-10-24T09:03:37.033Z,2.30
2022-10-24T09:06:17.869Z,2.77
2022-10-24T09:09:00.646Z,2.70
2022-10-24T09:11:52.470Z,2.40
2022-10-24T09:14:24.777Z,2.47
2022-10-24T09:17:02.395Z,2.37
2022-10-24T09:19:33.652Z,2.63
2022-10-24T09:22:10.590Z,2.30
2022-10-24T09:24:44.385Z,2.93
2022-10-24T09:27:25.691Z,2.77
2022-10-24T09:29:55.778Z,2.80
2022-10-24T09:32:33.638Z,2.40
2022-10-24T09:35:04.479Z,2.33
2022-10-24T09:37:44.483Z,2.53
2022-10-24T09:40:21.552Z,2.50
2022-10-24T09:43:00.431Z,2.40
2022-10-24T09:45:43.141Z,2.70
2022-10-24T09:48:30.485Z,2.90
2022-10-24T09:51:00.396Z,2.60
2022-10-24T09:53:38.428Z,3.23
2022-10-24T09:56:11.962Z,2.70
2022-10-24T09:58:47.412Z,2.60
2022-10-24T10:01:22.944Z,2.30
2022-10-24T10:04:12.131Z,2.70
2022-10-24T10:06:46.080Z,2.30
2022-10-24T10:09:29.655Z,2.93
2022-10-24T10:12:02.756Z,2.70
2022-10-24T10:14:39.428Z,2.80
2022-10-24T10:17:09.279Z,2.40
2022-10-24T10:19:45.409Z,2.27
2022-10-24T10:22:25.681Z,2.60
2022-10-24T10:25:01.670Z,2.40
2022-10-24T10:27:34.873Z,2.23
2022-10-24T10:30:26.473Z,2.80
2022-10-24T10:36:17.765Z,2.93
2022-10-24T10:39:01.911Z,2.90
2022-10-24T10:41:49.990Z,2.50
2022-10-24T10:44:44.853Z,3.00
2022-10-24T10:47:34.031Z,2.40
2022-10-24T10:50:04.727Z,2.33
2022-10-24T10:52:48.866Z,2.57
2022-10-24T10:55:27.484Z,3.27
2022-10-24T10:58:13.105Z,2.80
2022-10-24T11:00:47.798Z,2.87
2022-10-24T11:03:40.833Z,2.53
2022-10-24T11:06:29.451Z,2.43
2022-10-24T11:09:31.054Z,2.17
2022-10-24T11:12:16.317Z,2.47
2022-10-24T11:14:56.889Z,2.27
2022-10-24T11:17:27.983Z,2.43
2022-10-24T11:20:10.995Z,2.10
2022-10-24T11:22:44.442Z,2.10
2022-10-24T11:25:31.010Z,1.97
2022-10-24T11:28:07.929Z,3.00
2022-10-24T11:30:51.042Z,2.57
2022-10-24T11:33:23.852Z,2.53
2022-10-24T11:36:24.848Z,2.47
2022-10-24T11:39:00.469Z,2.67
2022-10-24T11:41:47.820Z,2.60
2022-10-24T11:44:41.816Z,2.20
2022-10-24T11:47:43.354Z,2.40
2022-10-24T11:50:26.079Z,2.03
2022-10-24T11:52:58.483Z,1.80
2022-10-24T11:55:43.964Z,2.30
2022-10-24T11:58:17.287Z,2.17
2022-10-24T12:01:16.922Z,2.80
2022-10-24T12:04:22.875Z,2.30
2022-10-24T12:07:28.982Z,2.07
2022-10-24T12:10:18.743Z,1.97
2022-10-24T12:13:16.314Z,2.03
2022-10-24T12:15:57.289Z,2.50
2022-10-24T12:18:39.075Z,2.20
2022-10-24T12:21:10.899Z,1.70
2022-10-24T12:23:47.933Z,2.40
2022-10-24T12:26:20.998Z,2.40
2022-10-24T12:29:04.020Z,2.23
2022-10-24T12:31:35.674Z,2.63
2022-10-24T12:35:25.231Z,2.23
2022-10-24T12:37:49.551Z,2.37
2022-10-24T12:41:01.908Z,2.17
2022-10-24T12:43:33.878Z,2.17
2022-10-24T12:46:13.335Z,2.43
2022-10-24T12:48:44.996Z,2.23
2022-10-24T12:51:37.835Z,2.20
2022-10-24T12:54:21.577Z,2.30
2022-10-24T12:57:29.946Z,2.10
2022-10-24T12:59:59.886Z,2.07
2022-10-24T13:02:49.962Z,2.00
2022-10-24T13:05:35.606Z,2.00
2022-10-24T13:08:22.914Z,2.20
2022-10-24T13:11:03.212Z,2.20
2022-10-24T13:13:54.115Z,2.57
2022-10-24T13:16:33.804Z,2.40
2022-10-24T13:19:17.094Z,2.57
2022-10-24T13:21:49.911Z,2.57
2022-10-24T13:24:35.949Z,2.10
2022-10-24T13:27:27.143Z,2.47
2022-10-24T13:30:30.956Z,2.33
2022-10-24T13:33:33.743Z,2.40
2022-10-24T13:36:28.186Z,2.23
2022-10-24T13:39:01.278Z,2.23
2022-10-24T13:41:40.984Z,2.33
2022-10-24T13:44:20.112Z,2.43
2022-10-24T13:47:00.174Z,2.27
2022-10-24T13:49:34.249Z,2.60
2022-10-24T13:52:15.925Z,2.70
2022-10-24T13:54:54.318Z,2.73
2022-10-24T13:57:45.363Z,2.60
2022-10-24T14:00:22.425Z,2.60
2022-10-24T14:02:58.085Z,2.03
2022-10-24T14:05:36.427Z,3.33
2022-10-24T14:08:14.128Z,2.63
2022-10-24T14:10:44.584Z,1.73
2022-10-24T14:13:24.141Z,1.90
2022-10-24T14:15:55.874Z,2.10
2022-10-24T14:18:32.192Z,2.27
2022-10-24T14:21:02.578Z,2.00
2022-10-24T14:23:41.150Z,2.00
2022-10-24T14:26:18.629Z,1.90
2022-10-24T14:28:59.774Z,1.93
2022-10-24T14:31:31.352Z,1.83
2022-10-24T14:34:07.062Z,1.80
2022-10-24T14:36:52.025Z,2.30
2022-10-24T14:39:24.096Z,1.90
2022-10-24T14:42:01.961Z,1.70
2022-10-24T14:44:31.518Z,1.80
2022-10-24T14:47:12.050Z,1.87
2022-10-24T14:49:40.640Z,2.00
2022-10-24T14:52:19.039Z,2.00
2022-10-24T14:54:58.855Z,2.30
2022-10-24T14:57:37.074Z,2.00
2022-10-24T15:00:09.066Z,1.93
2022-10-24T15:02:47.640Z,2.27
2022-10-24T15:05:32.228Z,2.27
2022-10-24T15:08:31.293Z,2.33
2022-10-24T15:11:07.546Z,2.20
2022-10-24T15:14:06.174Z,2.67
2022-10-24T15:16:38.005Z,2.53
2022-10-24T15:19:14.063Z,2.73
2022-10-24T15:21:47.658Z,2.60
2022-10-24T15:24:30.187Z,2.80
2022-10-24T15:27:11.847Z,2.57
2022-10-24T15:29:49.214Z,2.17
2022-10-24T15:32:17.656Z,2.30
2022-10-24T15:35:09.257Z,2.40
2022-10-24T15:37:38.061Z,2.83
2022-10-24T15:40:21.168Z,2.27
2022-10-24T15:42:49.533Z,2.67
2022-10-24T15:45:27.202Z,2.70
2022-10-24T15:47:55.739Z,2.10
2022-10-24T15:50:32.099Z,2.20
2022-10-24T15:53:03.675Z,2.27
2022-10-24T15:55:40.109Z,2.13
2022-10-24T15:58:12.486Z,2.23
2022-10-24T16:00:49.253Z,2.20
2022-10-24T16:03:21.358Z,2.20
2022-10-24T16:06:00.233Z,2.60
2022-10-24T16:08:28.662Z,2.20
2022-10-24T16:11:07.607Z,2.27
2022-10-24T16:13:38.518Z,2.00
2022-10-24T16:16:16.183Z,2.23
2022-10-24T16:18:45.138Z,2.80
2022-10-24T16:21:24.115Z,3.17
2022-10-24T16:23:52.911Z,2.80
2022-10-24T16:26:28.085Z,2.37
2022-10-24T16:28:56.483Z,2.37
2022-10-24T16:31:33.295Z,2.20
2022-10-24T16:34:01.816Z,2.60
2022-10-24T16:36:43.288Z,2.77
2022-10-24T16:39:11.875Z,2.60
2022-10-24T16:41:52.159Z,2.40
2022-10-24T16:44:20.789Z,2.70
2022-10-24T16:47:00.294Z,2.70
2022-10-24T16:49:28.686Z,2.53
2022-10-24T16:52:04.140Z,2.60
2022-10-24T16:54:33.029Z,2.47
2022-10-24T16:57:08.278Z,2.60
2022-10-24T16:59:36.665Z,2.53
2022-10-24T17:02:13.396Z,2.93
2022-10-24T17:04:43.109Z,2.17
2022-10-24T17:07:18.119Z,2.80
2022-10-24T17:09:46.731Z,3.17
2022-10-24T17:12:22.206Z,2.67
2022-10-24T17:14:51.159Z,3.30
2022-10-24T17:17:27.114Z,2.80
2022-10-24T17:19:55.758Z,2.53
2022-10-24T17:22:31.139Z,2.60
2022-10-24T17:24:59.946Z,2.63
2022-10-24T17:27:35.119Z,2.60
2022-10-24T17:30:04.059Z,2.57
2022-10-24T17:32:41.194Z,2.87
2022-10-24T17:35:18.683Z,3.20
2022-10-24T17:38:05.297Z,2.50
2022-10-24T17:40:41.793Z,2.70
2022-10-24T17:43:25.320Z,2.87
2022-10-24T17:45:55.136Z,2.93
2022-10-24T17:48:32.198Z,3.00
2022-10-24T17:51:02.273Z,3.57
2022-10-24T17:53:37.209Z,4.57
2022-10-24T17:56:06.249Z,3.00
2022-10-24T17:58:41.156Z,3.73
2022-10-24T18:01:09.996Z,3.40
2022-10-24T18:03:46.227Z,2.50
2022-10-24T18:06:16.093Z,2.53
2022-10-24T18:08:51.395Z,2.87
2022-10-24T18:11:19.801Z,2.87
2022-10-24T18:13:55.201Z,3.17
2022-10-24T18:16:26.131Z,3.47
2022-10-24T18:19:16.211Z,2.83
2022-10-24T18:21:44.690Z,5.13
2022-10-24T18:24:19.322Z,2.80
2022-10-24T18:26:48.346Z,1.60
2022-10-24T18:29:23.199Z,3.30
2022-10-24T18:31:51.672Z,1.70
2022-10-24T18:34:28.207Z,1.37
2022-10-24T18:37:03.478Z,1.77
2022-10-24T18:39:38.247Z,1.33
2022-10-24T18:42:12.878Z,1.27
2022-10-24T18:44:50.959Z,1.57
2022-10-24T18:47:24.693Z,1.40
2022-10-24T18:50:04.415Z,1.67
2022-10-24T18:52:42.088Z,1.60
2022-10-24T18:55:25.223Z,2.00
2022-10-24T18:57:54.268Z,1.90
2022-10-24T19:00:31.413Z,1.53
2022-10-24T19:03:13.688Z,1.87
2022-10-24T19:05:55.052Z,1.73
2022-10-24T19:08:25.979Z,1.90
2022-10-24T19:11:02.275Z,1.60
2022-10-24T19:13:30.856Z,1.40
2022-10-24T19:16:08.304Z,2.80
2022-10-24T19:18:38.148Z,2.13
2022-10-24T19:21:15.286Z,1.50
2022-10-24T19:23:43.743Z,1.40
2022-10-24T19:26:19.480Z,1.83
2022-10-24T19:28:48.122Z,1.50
2022-10-24T19:31:23.308Z,1.87
2022-10-24T19:33:54.665Z,2.63
2022-10-24T19:36:31.473Z,3.13
2022-10-24T19:39:00.466Z,3.20
2022-10-24T19:41:35.268Z,5.30
2022-10-24T19:44:04.032Z,6.63
2022-10-24T19:46:39.374Z,7.77
2022-10-24T19:49:07.928Z,5.70
2022-10-24T19:51:44.460Z,5.30
2022-10-24T19:54:13.080Z,4.30
2022-10-24T19:56:48.297Z,2.30
2022-10-24T19:59:16.902Z,2.20
2022-10-24T20:01:52.566Z,2.00
2022-10-24T20:04:21.240Z,1.90
2022-10-24T20:06:58.280Z,2.10
2022-10-24T20:09:33.441Z,2.10
2022-10-24T20:12:02.227Z,1.83
2022-10-24T20:14:37.364Z,2.10
2022-10-24T20:17:05.871Z,2.00
2022-10-24T20:19:41.493Z,2.30
2022-10-24T20:22:12.347Z,2.30
2022-10-24T20:24:47.388Z,2.37
2022-10-24T20:27:16.639Z,2.47
2022-10-24T20:29:53.364Z,2.57
2022-10-24T20:32:22.089Z,2.13
2022-10-24T20:35:03.480Z,2.37
2022-10-24T20:37:40.065Z,2.60
2022-10-24T20:40:16.356Z,2.67
2022-10-24T20:42:44.879Z,2.43
2022-10-24T20:45:22.820Z,2.10
2022-10-24T20:47:51.745Z,2.50
2022-10-24T20:50:26.503Z,2.43
2022-10-24T20:52:56.568Z,2.53
2022-10-24T20:55:43.787Z,2.63
2022-10-24T20:58:13.880Z,2.27
2022-10-24T21:00:49.404Z,2.20
2022-10-24T21:03:17.841Z,2.57
2022-10-24T21:05:52.330Z,2.50
2022-10-24T21:08:22.263Z,2.10
2022-10-24T21:10:57.360Z,2.40
2022-10-24T21:13:25.813Z,2.50
2022-10-24T21:16:04.414Z,2.60
2022-10-24T21:18:33.727Z,2.20
2022-10-24T21:21:14.439Z,2.20
2022-10-24T21:23:44.831Z,2.20
2022-10-24T21:26:22.414Z,2.60
2022-10-24T21:28:54.038Z,2.60
2022-10-24T21:31:34.429Z,2.40
2022-10-24T21:34:03.205Z,2.57
2022-10-24T21:36:44.346Z,2.93
2022-10-24T21:39:15.723Z,2.40
2022-10-24T21:41:51.529Z,2.00
2022-10-24T21:44:23.394Z,2.30
2022-10-24T21:47:01.630Z,2.00
2022-10-24T21:49:30.091Z,2.37
2022-10-24T21:52:05.392Z,1.90
2022-10-24T21:54:35.329Z,2.20
2022-10-24T21:57:10.388Z,1.77
2022-10-24T21:59:39.059Z,2.10
2022-10-24T22:02:14.829Z,2.10
2022-10-24T22:04:43.464Z,2.20
2022-10-24T22:07:18.469Z,1.87
2022-10-24T22:09:48.275Z,1.90
2022-10-24T22:12:23.383Z,2.03
2022-10-24T22:14:51.760Z,2.20
2022-10-24T22:17:26.568Z,1.87
2022-10-24T22:19:55.184Z,2.10
2022-10-24T22:22:30.494Z,1.93
2022-10-24T22:25:00.401Z,1.90
2022-10-24T22:27:35.730Z,1.80
2022-10-24T22:30:04.213Z,1.80
2022-10-24T22:32:39.485Z,2.10
2022-10-24T22:35:29.437Z,1.80
2022-10-24T22:37:58.475Z,1.90
2022-10-24T22:40:36.672Z,1.80
2022-10-24T22:43:05.688Z,2.13
2022-10-24T22:45:35.053Z,2.20
2022-10-24T22:48:20.496Z,2.27
2022-10-24T22:51:00.474Z,2.20
2022-10-24T22:53:31.713Z,1.67
2022-10-24T22:56:23.604Z,1.93
2022-10-24T22:58:52.596Z,1.67
2022-10-24T23:01:41.599Z,2.10
2022-10-24T23:04:22.213Z,1.67
2022-10-24T23:07:02.610Z,2.13
2022-10-24T23:09:31.130Z,2.07
2022-10-24T23:12:08.476Z,1.73
2022-10-24T23:14:37.475Z,2.53
2022-10-24T23:17:12.604Z,2.10
2022-10-24T23:19:45.508Z,1.80
2022-10-24T23:22:29.584Z,2.00
2022-10-24T23:24:59.649Z,2.00
2022-10-24T23:30:43.153Z,1.83
2022-10-24T23:33:22.080Z,2.53
2022-10-24T23:35:53.307Z,2.00
2022-10-24T23:38:29.054Z,1.93
2022-10-24T23:40:58.101Z,1.93
2022-10-24T23:43:33.962Z,2.00
2022-10-24T23:46:11.852Z,2.20
2022-10-24T23:48:59.185Z,2.03
2022-10-24T23:51:32.754Z,1.80
2022-10-24T23:54:08.035Z,2.20
2022-10-24T23:56:36.764Z,1.93
2022-10-24T23:59:12.029Z,2.30
